Time;durP1;ratioP1;P1;durP2;ratioP2;P2;SDS_P1;SDS_P2;PMS_P1;PMS_P2;Temp;Humidity;BMP_temperature;BMP_pressure;BME280_temperature;BME280_humidity;BME280_pressure;Samples;Min_cycle;Max_cycle;Signal;HPM_P1;HPM_P2
2023/06/06 00:00:19;;;;;;;12.45;6.65;;;;;;;;;;5034792;28;94413;-74
2023/06/06 00:02:45;;;;;;;14.68;6.95;;;;;;;;;;5037906;27;91752;-75
2023/06/06 00:05:13;;;;;;;10.25;6.70;;;;;;;;;;5016614;28;95353;-75
2023/06/06 00:07:42;;;;;;;14.52;6.93;;;;;;;;;;5034632;28;92420;-75
2023/06/06 00:10:09;;;;;;;12.20;7.45;;;;;;;;;;5032991;28;94886;-74
2023/06/06 00:12:36;;;;;;;12.38;6.72;;;;;;;;;;5034294;28;94560;-75
2023/06/06 00:15:05;;;;;;;13.70;7.65;;;;;;;;;;5034640;27;92772;-75
2023/06/06 00:17:32;;;;;;;9.65;6.45;;;;;;;;;;5020331;27;94954;-75
2023/06/06 00:19:59;;;;;;;12.93;7.07;;;;;;;;;;5014168;28;94862;-75
2023/06/06 00:22:25;;;;;;;14.05;7.40;;;;;;;;;;4996573;28;92845;-75
2023/06/06 00:24:52;;;;;;;13.85;7.30;;;;;;;;;;5019674;28;94319;-75
2023/06/06 00:27:19;;;;;;;15.52;7.60;;;;;;;;;;5017097;28;91885;-75
2023/06/06 00:29:46;;;;;;;12.13;6.88;;;;;;;;;;5017517;28;94121;-75
2023/06/06 00:32:13;;;;;;;16.33;6.85;;;;;;;;;;5016679;28;96161;-75
2023/06/06 00:34:40;;;;;;;13.75;7.38;;;;;;;;;;5016357;28;94818;-75
2023/06/06 00:37:06;;;;;;;17.17;8.57;;;;;;;;;;5017651;28;95578;-74
2023/06/06 00:39:33;;;;;;;15.82;7.30;;;;;;;;;;5017750;28;93193;-75
2023/06/06 00:41:59;;;;;;;11.65;7.40;;;;;;;;;;5017717;28;92431;-74
2023/06/06 00:44:26;;;;;;;12.82;7.05;;;;;;;;;;5020009;28;94363;-75
2023/06/06 00:46:52;;;;;;;13.40;7.70;;;;;;;;;;5025087;27;92420;-75
2023/06/06 00:49:18;;;;;;;13.68;7.75;;;;;;;;;;5037790;28;94087;-74
2023/06/06 00:51:46;;;;;;;12.85;7.65;;;;;;;;;;5038094;28;93764;-75
2023/06/06 00:54:16;;;;;;;13.52;7.75;;;;;;;;;;5037406;27;93123;-75
2023/06/06 00:56:43;;;;;;;12.47;8.10;;;;;;;;;;5037752;28;94327;-74
2023/06/06 00:59:11;;;;;;;14.80;7.28;;;;;;;;;;5035564;27;97202;-75
2023/06/06 01:01:38;;;;;;;12.63;7.72;;;;;;;;;;5037765;27;92381;-75
2023/06/06 01:04:10;;;;;;;16.08;8.05;;;;;;;;;;5037662;27;93991;-75
2023/06/06 01:06:37;;;;;;;14.68;7.85;;;;;;;;;;5040540;28;94827;-74
2023/06/06 01:09:04;;;;;;;18.05;8.90;;;;;;;;;;5037411;28;94595;-75
2023/06/06 01:11:34;;;;;;;11.43;8.10;;;;;;;;;;5036900;27;95061;-75
2023/06/06 01:14:21;;;;;;;15.00;8.13;;;;;;;;;;5037549;27;92895;-74
2023/06/06 01:16:49;;;;;;;13.27;7.97;;;;;;;;;;5035984;27;94536;-75
2023/06/06 01:19:20;;;;;;;15.48;8.57;;;;;;;;;;5037115;28;93845;-74
2023/06/06 01:21:46;;;;;;;17.45;8.13;;;;;;;;;;5019487;28;92623;-75
2023/06/06 01:24:13;;;;;;;12.25;8.15;;;;;;;;;;5033866;27;94922;-75
2023/06/06 01:26:39;;;;;;;17.05;8.13;;;;;;;;;;5037113;27;94911;-75
2023/06/06 01:29:06;;;;;;;11.95;8.45;;;;;;;;;;5040202;27;92529;-75
2023/06/06 01:31:41;;;;;;;19.73;9.13;;;;;;;;;;5036811;27;94841;-75
2023/06/06 01:34:11;;;;;;;16.50;8.48;;;;;;;;;;5037016;27;92432;-74
2023/06/06 01:36:48;;;;;;;13.02;8.65;;;;;;;;;;5036708;27;94282;-75
2023/06/06 01:39:17;;;;;;;15.43;8.93;;;;;;;;;;5036845;27;94928;-74
2023/06/06 01:41:46;;;;;;;14.95;8.73;;;;;;;;;;5037407;27;91703;-74
2023/06/06 01:44:15;;;;;;;20.50;9.30;;;;;;;;;;5018686;28;92813;-74
2023/06/06 01:46:42;;;;;;;13.65;8.68;;;;;;;;;;5018341;28;94634;-74
2023/06/06 01:49:11;;;;;;;18.35;9.07;;;;;;;;;;5017106;27;94918;-75
2023/06/06 01:51:37;;;;;;;13.98;8.73;;;;;;;;;;5021689;28;97115;-75
2023/06/06 01:54:05;;;;;;;16.77;9.05;;;;;;;;;;5036801;28;92414;-74
2023/06/06 01:56:33;;;;;;;18.23;8.77;;;;;;;;;;5036437;27;94285;-75
2023/06/06 01:59:00;;;;;;;14.30;8.82;;;;;;;;;;5035382;27;94686;-74
2023/06/06 02:01:28;;;;;;;18.77;10.27;;;;;;;;;;5018445;27;92521;-74
2023/06/06 02:03:55;;;;;;;21.50;10.13;;;;;;;;;;5035721;27;94459;-75
2023/06/06 02:06:22;;;;;;;14.48;8.32;;;;;;;;;;5036230;27;96691;-74
2023/06/06 02:08:49;;;;;;;14.02;8.55;;;;;;;;;;5036369;27;92456;-75
2023/06/06 02:11:15;;;;;;;16.95;9.05;;;;;;;;;;5036300;27;93842;-74
2023/06/06 02:13:43;;;;;;;14.25;9.20;;;;;;;;;;5037597;27;97522;-75
2023/06/06 02:16:10;;;;;;;16.27;9.57;;;;;;;;;;5035949;27;96114;-74
2023/06/06 02:18:36;;;;;;;16.45;10.15;;;;;;;;;;5036151;28;95062;-75
2023/06/06 02:21:03;;;;;;;13.85;8.88;;;;;;;;;;5035823;27;92424;-74
2023/06/06 02:23:29;;;;;;;13.00;8.70;;;;;;;;;;5036399;28;97567;-75
2023/06/06 02:25:56;;;;;;;17.38;9.43;;;;;;;;;;5035882;27;94628;-75
2023/06/06 02:28:23;;;;;;;12.52;8.35;;;;;;;;;;5036088;27;92450;-74
2023/06/06 02:30:49;;;;;;;18.30;8.82;;;;;;;;;;5036360;27;94113;-74
2023/06/06 02:33:19;;;;;;;14.05;9.18;;;;;;;;;;5035824;28;94706;-74
2023/06/06 02:35:46;;;;;;;19.83;9.27;;;;;;;;;;5038897;27;92393;-74
2023/06/06 02:38:13;;;;;;;13.23;8.70;;;;;;;;;;5033995;27;96876;-74
2023/06/06 02:40:39;;;;;;;18.98;9.48;;;;;;;;;;5036164;27;92825;-75
2023/06/06 02:43:05;;;;;;;14.48;9.00;;;;;;;;;;5035627;27;94170;-74
2023/06/06 02:45:32;;;;;;;18.17;9.25;;;;;;;;;;5035337;28;94914;-74
2023/06/06 02:47:58;;;;;;;16.73;8.93;;;;;;;;;;5035157;28;92421;-74
2023/06/06 02:50:28;;;;;;;14.15;8.63;;;;;;;;;;5035844;27;94475;-75
2023/06/06 02:52:55;;;;;;;16.27;8.40;;;;;;;;;;5035633;27;94889;-75
2023/06/06 02:55:23;;;;;;;18.10;9.15;;;;;;;;;;5039558;28;92120;-74
2023/06/06 02:57:50;;;;;;;16.80;8.80;;;;;;;;;;5035657;27;94819;-74
2023/06/06 03:00:17;;;;;;;15.63;9.05;;;;;;;;;;5035664;27;92457;-74
2023/06/06 03:02:44;;;;;;;20.83;8.85;;;;;;;;;;5034019;28;94800;-74
2023/06/06 03:05:11;;;;;;;16.48;8.50;;;;;;;;;;5017534;28;94458;-74
2023/06/06 03:07:38;;;;;;;21.40;8.95;;;;;;;;;;5017546;28;92428;-75
2023/06/06 03:10:05;;;;;;;14.02;8.60;;;;;;;;;;5017817;28;94542;-74
2023/06/06 03:12:31;;;;;;;17.58;8.95;;;;;;;;;;5035280;27;94935;-74
2023/06/06 03:14:58;;;;;;;18.42;9.32;;;;;;;;;;5035519;27;92454;-75
2023/06/06 03:17:25;;;;;;;16.90;9.25;;;;;;;;;;5038322;27;94116;-74
2023/06/06 03:19:51;;;;;;;16.85;8.88;;;;;;;;;;5036086;28;91742;-75
2023/06/06 03:22:18;;;;;;;16.83;8.73;;;;;;;;;;5035554;28;93603;-74
2023/06/06 03:24:49;;;;;;;14.43;8.65;;;;;;;;;;5034636;27;94990;-74
2023/06/06 03:27:17;;;;;;;13.77;8.25;;;;;;;;;;5033710;28;94897;-75
2023/06/06 03:29:43;;;;;;;13.52;7.93;;;;;;;;;;5034801;27;95673;-74
2023/06/06 03:32:09;;;;;;;16.17;8.43;;;;;;;;;;5034695;27;94480;-74
2023/06/06 03:34:36;;;;;;;20.10;9.43;;;;;;;;;;5034943;28;92677;-74
2023/06/06 03:37:02;;;;;;;11.80;7.97;;;;;;;;;;5034768;28;94337;-74
2023/06/06 03:39:29;;;;;;;17.52;8.70;;;;;;;;;;5037737;27;94611;-74
2023/06/06 03:41:55;;;;;;;14.63;8.55;;;;;;;;;;5034942;27;94207;-74
2023/06/06 03:44:21;;;;;;;14.95;9.05;;;;;;;;;;5035024;28;93665;-74
2023/06/06 03:46:48;;;;;;;19.05;8.70;;;;;;;;;;5016905;28;92441;-74
2023/06/06 03:49:15;;;;;;;21.42;8.23;;;;;;;;;;5016832;28;94565;-74
2023/06/06 03:51:41;;;;;;;14.35;8.38;;;;;;;;;;5014752;28;96998;-74
2023/06/06 03:54:08;;;;;;;17.90;8.55;;;;;;;;;;5034764;28;92537;-74
2023/06/06 03:56:36;;;;;;;16.50;8.90;;;;;;;;;;5034661;28;97251;-74
2023/06/06 03:59:05;;;;;;;16.05;8.60;;;;;;;;;;5033383;27;94626;-75
2023/06/06 04:01:32;;;;;;;13.50;7.38;;;;;;;;;;5037530;27;92684;-74
2023/06/06 04:03:59;;;;;;;14.20;7.75;;;;;;;;;;5016593;28;95186;-74
2023/06/06 04:06:26;;;;;;;12.80;8.23;;;;;;;;;;5033991;27;92498;-74
2023/06/06 04:08:52;;;;;;;13.95;7.55;;;;;;;;;;5035206;28;93684;-74
2023/06/06 04:11:26;;;;;;;17.58;7.95;;;;;;;;;;5034413;28;94560;-74
2023/06/06 04:13:53;;;;;;;14.45;7.57;;;;;;;;;;5034662;28;92468;-74
2023/06/06 04:16:20;;;;;;;12.50;8.00;;;;;;;;;;5032801;28;94991;-74
2023/06/06 04:18:47;;;;;;;16.95;7.28;;;;;;;;;;5034244;28;94982;-74
2023/06/06 04:21:13;;;;;;;14.68;8.27;;;;;;;;;;5034177;27;92369;-74
2023/06/06 04:23:40;;;;;;;13.40;7.30;;;;;;;;;;5019295;28;94370;-74
2023/06/06 04:26:10;;;;;;;14.70;7.78;;;;;;;;;;5033972;28;92556;-74
2023/06/06 04:28:37;;;;;;;15.05;7.13;;;;;;;;;;5034008;27;93245;-74
2023/06/06 04:31:07;;;;;;;11.57;7.50;;;;;;;;;;5034342;27;94626;-74
2023/06/06 04:33:34;;;;;;;16.60;7.88;;;;;;;;;;5034600;28;91654;-74
2023/06/06 04:36:02;;;;;;;14.93;7.43;;;;;;;;;;5034003;27;93747;-74
2023/06/06 04:38:29;;;;;;;12.05;6.78;;;;;;;;;;5034053;28;94501;-73
2023/06/06 04:40:59;;;;;;;18.05;7.05;;;;;;;;;;5032490;28;94881;-74
2023/06/06 04:43:49;;;;;;;16.85;7.82;;;;;;;;;;5037239;28;98766;-74
2023/06/06 04:46:24;;;;;;;14.07;7.40;;;;;;;;;;5033857;28;92797;-74
2023/06/06 04:48:54;;;;;;;12.52;6.82;;;;;;;;;;5033994;27;94259;-74
2023/06/06 04:51:29;;;;;;;18.20;7.03;;;;;;;;;;5033948;28;94867;-74
2023/06/06 04:53:59;;;;;;;12.57;7.20;;;;;;;;;;5033904;28;92441;-74
2023/06/06 04:56:28;;;;;;;10.43;7.20;;;;;;;;;;5033736;27;94129;-74
2023/06/06 04:58:56;;;;;;;12.65;7.50;;;;;;;;;;5033950;28;92878;-74
2023/06/06 05:01:23;;;;;;;14.10;7.80;;;;;;;;;;5015888;28;92430;-74
2023/06/06 05:03:50;;;;;;;11.63;7.22;;;;;;;;;;5034104;28;94779;-73
2023/06/06 05:06:17;;;;;;;12.88;7.38;;;;;;;;;;5035047;27;96831;-74
2023/06/06 05:08:44;;;;;;;13.73;7.03;;;;;;;;;;5033598;27;96538;-74
2023/06/06 05:11:11;;;;;;;19.33;7.93;;;;;;;;;;5036583;28;94251;-74
2023/06/06 05:13:37;;;;;;;17.73;8.27;;;;;;;;;;5037313;27;92509;-74
2023/06/06 05:16:04;;;;;;;15.43;7.97;;;;;;;;;;5037170;27;94449;-75
2023/06/06 05:18:31;;;;;;;13.77;8.25;;;;;;;;;;5037104;28;94401;-74
2023/06/06 05:21:00;;;;;;;15.82;8.27;;;;;;;;;;5019267;28;92527;-74
2023/06/06 05:23:30;;;;;;;11.10;7.63;;;;;;;;;;5037782;27;94177;-75
2023/06/06 05:25:57;;;;;;;18.17;8.10;;;;;;;;;;5036250;28;94683;-74
2023/06/06 05:28:24;;;;;;;18.27;8.80;;;;;;;;;;5040198;27;93909;-74
2023/06/06 05:30:52;;;;;;;19.02;8.35;;;;;;;;;;5034970;27;96876;-74
2023/06/06 05:33:19;;;;;;;16.25;8.23;;;;;;;;;;5035776;27;92449;-74
2023/06/06 05:35:49;;;;;;;17.45;8.63;;;;;;;;;;5036896;27;94337;-74
2023/06/06 05:38:19;;;;;;;;;;;;;;;;;;5036935;28;94827;-74
2023/06/06 05:40:45;;;;;;;17.30;7.95;;;;;;;;;;5037512;28;118844;-74
2023/06/06 05:43:13;;;;;;;17.70;8.98;;;;;;;;;;5018799;28;94559;-74
2023/06/06 05:45:39;;;;;;;19.33;7.97;;;;;;;;;;5036443;27;94424;-74
2023/06/06 05:48:10;;;;;;;14.38;7.97;;;;;;;;;;5037135;28;91699;-74
2023/06/06 05:50:37;;;;;;;20.27;8.57;;;;;;;;;;5039174;27;93586;-74
2023/06/06 05:53:04;;;;;;;17.83;8.40;;;;;;;;;;5036547;28;92545;-75
2023/06/06 05:55:31;;;;;;;18.98;7.90;;;;;;;;;;5035411;27;94792;-74
2023/06/06 05:57:58;;;;;;;13.82;7.72;;;;;;;;;;5036664;28;94704;-74
2023/06/06 06:00:25;;;;;;;20.20;8.35;;;;;;;;;;5036440;28;92426;-74
2023/06/06 06:02:53;;;;;;;17.83;8.27;;;;;;;;;;5036241;27;94255;-74
2023/06/06 06:05:19;;;;;;;15.63;7.88;;;;;;;;;;5034854;27;94778;-74
2023/06/06 06:07:49;;;;;;;18.08;8.10;;;;;;;;;;5036345;27;92882;-74
2023/06/06 06:10:16;;;;;;;15.23;8.07;;;;;;;;;;5036691;28;93743;-74
2023/06/06 06:12:42;;;;;;;15.63;8.23;;;;;;;;;;5021859;28;93800;-73
2023/06/06 06:15:09;;;;;;;15.07;7.75;;;;;;;;;;5036432;27;93539;-74
2023/06/06 06:17:36;;;;;;;21.02;8.40;;;;;;;;;;5036115;28;94557;-74
2023/06/06 06:20:06;;;;;;;18.77;8.73;;;;;;;;;;5034822;27;95269;-74
2023/06/06 06:22:32;;;;;;;19.20;9.13;;;;;;;;;;5035208;28;98200;-74
2023/06/06 06:24:59;;;;;;;17.85;8.32;;;;;;;;;;5035362;27;94759;-74
2023/06/06 06:27:25;;;;;;;21.42;8.65;;;;;;;;;;5036076;27;92374;-74
2023/06/06 06:29:52;;;;;;;19.90;8.35;;;;;;;;;;5017726;28;95244;-75
2023/06/06 06:32:19;;;;;;;18.67;8.55;;;;;;;;;;5036096;28;93271;-74
2023/06/06 06:34:45;;;;;;;14.10;7.45;;;;;;;;;;5038892;27;92447;-74
2023/06/06 06:37:12;;;;;;;18.70;7.47;;;;;;;;;;5035975;27;93786;-75
2023/06/06 06:39:38;;;;;;;14.68;7.80;;;;;;;;;;5036108;28;92923;-75
2023/06/06 06:42:07;;;;;;;16.38;8.15;;;;;;;;;;5035784;28;94438;-74
2023/06/06 06:44:33;;;;;;;17.70;8.05;;;;;;;;;;5015909;28;96816;-74
2023/06/06 06:47:01;;;;;;;15.65;7.68;;;;;;;;;;5035466;28;92365;-75
2023/06/06 06:49:27;;;;;;;15.75;7.70;;;;;;;;;;5035504;27;94612;-75
2023/06/06 06:51:54;;;;;;;17.90;7.80;;;;;;;;;;5035469;28;93795;-75
2023/06/06 06:54:22;;;;;;;17.60;7.82;;;;;;;;;;5038672;27;92409;-75
2023/06/06 06:56:48;;;;;;;16.20;7.47;;;;;;;;;;5017533;28;94748;-75
2023/06/06 06:59:16;;;;;;;18.25;7.95;;;;;;;;;;5017914;28;92514;-74
2023/06/06 07:01:48;;;;;;;15.98;7.85;;;;;;;;;;5017923;28;94560;-75
2023/06/06 07:04:16;;;;;;;19.23;7.25;;;;;;;;;;5035255;28;94103;-75
2023/06/06 07:06:43;;;;;;;14.70;7.38;;;;;;;;;;5035335;27;92460;-75
2023/06/06 07:09:11;;;;;;;12.70;7.28;;;;;;;;;;5033217;27;94808;-75
2023/06/06 07:11:37;;;;;;;17.80;7.47;;;;;;;;;;5035062;27;94511;-75
2023/06/06 07:14:04;;;;;;;17.33;8.10;;;;;;;;;;5035258;28;92421;-75
2023/06/06 07:16:31;;;;;;;13.02;7.55;;;;;;;;;;5038265;28;94875;-74
2023/06/06 07:18:57;;;;;;;16.73;7.93;;;;;;;;;;5035327;27;92690;-75
2023/06/06 07:21:25;;;;;;;17.45;7.60;;;;;;;;;;5035314;27;94639;-74
2023/06/06 07:23:52;;;;;;;14.55;7.18;;;;;;;;;;5035072;28;94429;-75
2023/06/06 07:26:21;;;;;;;14.65;7.63;;;;;;;;;;5034535;27;91943;-74
2023/06/06 07:28:48;;;;;;;14.77;6.75;;;;;;;;;;5034975;27;93971;-75
2023/06/06 07:31:15;;;;;;;19.38;7.72;;;;;;;;;;5034695;27;94733;-75
2023/06/06 07:33:42;;;;;;;19.58;7.68;;;;;;;;;;5032892;28;94782;-75
2023/06/06 07:36:08;;;;;;;19.42;7.68;;;;;;;;;;5034946;28;96691;-75
2023/06/06 07:38:35;;;;;;;16.65;7.22;;;;;;;;;;5037697;28;95178;-74
2023/06/06 07:41:02;;;;;;;14.77;7.25;;;;;;;;;;5034368;27;94360;-75
2023/06/06 07:43:28;;;;;;;17.90;7.13;;;;;;;;;;5034765;28;94333;-75
2023/06/06 07:45:55;;;;;;;15.15;6.72;;;;;;;;;;5016745;28;92514;-75
2023/06/06 07:48:21;;;;;;;18.00;6.88;;;;;;;;;;5034360;27;94340;-74
2023/06/06 07:50:48;;;;;;;14.25;6.80;;;;;;;;;;5035181;27;94307;-75
2023/06/06 07:53:14;;;;;;;17.63;6.53;;;;;;;;;;5034429;27;92451;-75
2023/06/06 07:55:41;;;;;;;17.65;6.25;;;;;;;;;;5034458;28;94803;-75
2023/06/06 07:58:11;;;;;;;12.20;6.05;;;;;;;;;;5032718;27;97172;-74
2023/06/06 08:00:40;;;;;;;12.07;6.05;;;;;;;;;;5037368;27;92776;-75
2023/06/06 08:03:07;;;;;;;10.15;6.05;;;;;;;;;;5034343;27;94891;-75
2023/06/06 08:05:36;;;;;;;17.83;6.55;;;;;;;;;;5034410;28;92437;-75
2023/06/06 08:08:05;;;;;;;7.90;5.68;;;;;;;;;;5034689;28;94622;-75
2023/06/06 08:10:32;;;;;;;18.88;5.70;;;;;;;;;;5034046;27;94633;-75
2023/06/06 08:13:03;;;;;;;12.50;6.28;;;;;;;;;;5034598;28;92380;-75
2023/06/06 08:15:30;;;;;;;19.05;6.20;;;;;;;;;;5034822;28;94796;-75
2023/06/06 08:17:56;;;;;;;14.25;6.40;;;;;;;;;;5034378;28;94581;-75
2023/06/06 08:20:23;;;;;;;18.15;6.18;;;;;;;;;;5034652;28;92524;-75
2023/06/06 08:22:53;;;;;;;12.02;6.00;;;;;;;;;;5035606;27;94792;-75
2023/06/06 08:25:19;;;;;;;14.02;6.45;;;;;;;;;;5015898;28;92596;-75
2023/06/06 08:27:45;;;;;;;11.63;6.50;;;;;;;;;;5034334;27;94302;-75
2023/06/06 08:30:12;;;;;;;16.08;6.80;;;;;;;;;;5034212;28;93326;-75
2023/06/06 08:32:38;;;;;;;14.38;5.88;;;;;;;;;;5034479;27;92421;-75
2023/06/06 08:35:05;;;;;;;21.67;5.75;;;;;;;;;;5034073;28;95056;-75
2023/06/06 08:37:31;;;;;;;18.23;5.97;;;;;;;;;;5034101;28;94648;-75
2023/06/06 08:39:58;;;;;;;11.60;5.70;;;;;;;;;;5034943;28;91692;-75
2023/06/06 08:42:26;;;;;;;9.88;5.95;;;;;;;;;;5034169;28;93403;-75
2023/06/06 08:44:52;;;;;;;15.77;5.45;;;;;;;;;;5037895;27;94468;-75
2023/06/06 08:47:23;;;;;;;15.10;6.50;;;;;;;;;;5036193;27;94821;-75
2023/06/06 08:49:50;;;;;;;11.18;6.03;;;;;;;;;;5037066;27;94807;-75
2023/06/06 08:52:17;;;;;;;10.50;5.75;;;;;;;;;;5037469;27;92403;-75
2023/06/06 08:54:44;;;;;;;14.45;6.78;;;;;;;;;;5037560;28;94677;-75
2023/06/06 08:57:11;;;;;;;13.88;5.85;;;;;;;;;;5037394;27;93771;-74
2023/06/06 08:59:38;;;;;;;12.70;5.97;;;;;;;;;;5019698;28;92454;-75
2023/06/06 09:02:06;;;;;;;16.85;6.32;;;;;;;;;;5019626;28;94336;-75
2023/06/06 09:04:33;;;;;;;12.55;6.35;;;;;;;;;;5040165;27;93245;-74
2023/06/06 09:07:04;;;;;;;17.00;6.28;;;;;;;;;;5037481;28;93789;-75
2023/06/06 09:09:33;;;;;;;10.32;5.82;;;;;;;;;;5037145;28;94925;-75
2023/06/06 09:11:59;;;;;;;17.27;6.15;;;;;;;;;;5035636;28;94840;-75
2023/06/06 09:14:26;;;;;;;15.40;6.28;;;;;;;;;;5037207;27;96683;-75
2023/06/06 09:16:52;;;;;;;9.43;5.65;;;;;;;;;;5036381;28;94455;-75
2023/06/06 09:19:25;;;;;;;13.68;6.68;;;;;;;;;;5019417;28;92519;-75
2023/06/06 09:21:52;;;;;;;12.02;5.93;;;;;;;;;;5036801;28;94663;-75
2023/06/06 09:24:19;;;;;;;13.95;6.22;;;;;;;;;;5036166;28;96391;-75
2023/06/06 09:26:46;;;;;;;12.68;6.05;;;;;;;;;;5040020;27;92758;-73
2023/06/06 09:29:12;;;;;;;13.95;6.13;;;;;;;;;;5037097;27;94490;-75
2023/06/06 09:31:40;;;;;;;12.52;6.35;;;;;;;;;;5036665;27;92376;-74
2023/06/06 09:34:08;;;;;;;8.68;5.80;;;;;;;;;;5036694;27;93204;-75
2023/06/06 09:36:37;;;;;;;11.98;5.78;;;;;;;;;;5034795;28;97021;-73
2023/06/06 09:39:07;;;;;;;12.70;6.45;;;;;;;;;;5036715;28;92448;-75
2023/06/06 09:41:33;;;;;;;;;;;;;;;;;;5036995;28;93831;-73
2023/06/06 09:44:03;;;;;;;15.85;6.32;;;;;;;;;;5036747;27;123718;-75
2023/06/06 09:46:34;;;;;;;10.75;6.22;;;;;;;;;;5018824;28;92433;-75
2023/06/06 09:49:01;;;;;;;20.90;6.82;;;;;;;;;;5039721;28;94567;-73
2023/06/06 09:51:31;;;;;;;13.23;6.30;;;;;;;;;;5036339;28;92462;-73
2023/06/06 09:53:57;;;;;;;;;;;;;;;;;;5037870;27;94222;-73
2023/06/06 09:56:25;;;;;;;13.35;6.10;;;;;;;;;;5036661;27;123191;-76
2023/06/06 09:58:55;;;;;;;13.40;6.40;;;;;;;;;;5036484;28;92413;-75
2023/06/06 10:01:31;;;;;;;18.38;6.63;;;;;;;;;;5034713;28;96783;-74
2023/06/06 10:03:58;;;;;;;17.92;6.50;;;;;;;;;;5036583;28;94160;-74
2023/06/06 10:06:33;;;;;;;12.85;6.18;;;;;;;;;;5036614;27;92340;-74
2023/06/06 10:09:06;;;;;;;12.85;6.68;;;;;;;;;;5035151;28;94287;-76
2023/06/06 10:11:34;;;;;;;12.63;7.00;;;;;;;;;;5038934;28;94445;-75
2023/06/06 10:14:04;;;;;;;13.20;6.55;;;;;;;;;;5036354;28;94922;-75
2023/06/06 10:16:33;;;;;;;11.32;6.18;;;;;;;;;;5036003;27;94867;-75
2023/06/06 10:19:00;;;;;;;12.35;6.20;;;;;;;;;;5036888;27;91759;-75
2023/06/06 10:21:27;;;;;;;18.23;6.95;;;;;;;;;;5017791;28;93442;-76
2023/06/06 10:23:54;;;;;;;11.23;5.90;;;;;;;;;;5036124;28;94468;-75
2023/06/06 10:26:23;;;;;;;14.13;6.22;;;;;;;;;;5034377;28;94835;-75
2023/06/06 10:28:56;;;;;;;10.38;6.18;;;;;;;;;;5035998;27;96960;-76
2023/06/06 10:31:31;;;;;;;22.05;7.10;;;;;;;;;;5017600;28;94626;-75
2023/06/06 10:34:00;;;;;;;21.55;6.72;;;;;;;;;;5038654;28;92680;-76
2023/06/06 10:36:36;;;;;;;11.05;5.82;;;;;;;;;;5017603;28;94723;-76
2023/06/06 10:39:15;;;;;;;20.00;6.55;;;;;;;;;;5035985;28;92397;-76
2023/06/06 10:41:47;;;;;;;16.70;6.22;;;;;;;;;;5035599;27;94147;-75
2023/06/06 10:44:18;;;;;;;13.20;6.32;;;;;;;;;;5018283;28;94363;-76
2023/06/06 10:46:47;;;;;;;15.05;6.13;;;;;;;;;;5035619;28;92416;-75
2023/06/06 10:49:14;;;;;;;16.17;6.72;;;;;;;;;;5036068;27;93699;-75
2023/06/06 10:51:40;;;;;;;18.73;6.20;;;;;;;;;;5033675;28;97184;-75
2023/06/06 10:54:27;;;;;;;13.25;6.18;;;;;;;;;;5035609;28;92390;-75
2023/06/06 10:56:54;;;;;;;11.52;5.82;;;;;;;;;;5020719;28;97015;-75
2023/06/06 10:59:22;;;;;;;15.18;5.60;;;;;;;;;;5035156;28;92621;-75
2023/06/06 11:01:48;;;;;;;10.65;5.80;;;;;;;;;;5035483;28;94591;-75
2023/06/06 11:04:22;;;;;;;12.93;5.70;;;;;;;;;;5035405;28;94494;-75
2023/06/06 11:06:50;;;;;;;16.83;6.78;;;;;;;;;;5035118;27;92427;-75
2023/06/06 11:09:25;;;;;;;14.52;6.72;;;;;;;;;;5035958;28;93673;-75
2023/06/06 11:12:10;;;;;;;11.15;5.65;;;;;;;;;;5034907;28;94237;-75
2023/06/06 11:14:55;;;;;;;14.57;6.20;;;;;;;;;;5035229;28;92378;-75
2023/06/06 11:17:27;;;;;;;13.13;6.57;;;;;;;;;;5036510;28;94981;-75
2023/06/06 11:19:55;;;;;;;14.63;5.50;;;;;;;;;;5035396;27;92388;-75
2023/06/06 11:22:24;;;;;;;;;;;;;;;;;;5035666;28;94600;-75
2023/06/06 11:24:51;;;;;;;18.52;6.53;;;;;;;;;;5035597;28;124074;-75
2023/06/06 11:27:17;;;;;;;10.98;4.90;;;;;;;;;;5035101;28;92422;-75
2023/06/06 11:29:47;;;;;;;20.88;6.25;;;;;;;;;;5035020;27;92751;-75
2023/06/06 11:32:14;;;;;;;12.10;5.43;;;;;;;;;;5034818;27;94477;-75
2023/06/06 11:34:41;;;;;;;13.55;5.82;;;;;;;;;;5017661;28;91719;-75
2023/06/06 11:37:08;;;;;;;14.45;5.25;;;;;;;;;;5034936;27;93789;-75
2023/06/06 11:39:36;;;;;;;16.63;6.05;;;;;;;;;;5037855;27;95154;-75
2023/06/06 11:42:02;;;;;;;12.52;4.85;;;;;;;;;;5033065;28;94940;-75
2023/06/06 11:44:30;;;;;;;16.42;5.50;;;;;;;;;;5034522;27;94476;-75
2023/06/06 11:46:57;;;;;;;18.27;6.20;;;;;;;;;;5034357;28;92471;-75
2023/06/06 11:49:25;;;;;;;12.10;5.50;;;;;;;;;;5034943;28;93076;-75
2023/06/06 11:51:59;;;;;;;11.63;6.05;;;;;;;;;;5034859;28;94926;-75
2023/06/06 11:54:28;;;;;;;15.77;5.53;;;;;;;;;;5034579;27;92497;-75
2023/06/06 11:56:58;;;;;;;10.45;5.00;;;;;;;;;;5034638;28;94842;-75
2023/06/06 11:59:25;;;;;;;13.95;5.63;;;;;;;;;;5035087;27;91897;-75
2023/06/06 12:01:58;;;;;;;13.25;5.57;;;;;;;;;;5036890;28;92511;-76
2023/06/06 12:04:26;;;;;;;16.20;6.20;;;;;;;;;;5016954;28;94618;-75
2023/06/06 12:06:53;;;;;;;17.88;5.47;;;;;;;;;;5032663;28;95145;-75
2023/06/06 12:09:20;;;;;;;17.45;5.18;;;;;;;;;;5034485;27;97171;-76
2023/06/06 12:11:52;;;;;;;15.32;5.70;;;;;;;;;;5034054;28;95345;-76
2023/06/06 12:14:23;;;;;;;14.02;5.75;;;;;;;;;;5034434;28;92401;-76
2023/06/06 12:16:49;;;;;;;13.98;5.80;;;;;;;;;;5016338;28;94880;-76
2023/06/06 12:19:16;;;;;;;6.97;4.13;;;;;;;;;;5016771;28;94859;-75
2023/06/06 12:21:44;;;;;;;12.23;5.50;;;;;;;;;;5019851;28;92476;-75
2023/06/06 12:24:17;;;;;;;13.43;5.32;;;;;;;;;;5040950;27;94405;-75
2023/06/06 12:26:53;;;;;;;14.93;5.07;;;;;;;;;;5020029;28;92435;-75
2023/06/06 12:29:21;;;;;;;10.48;4.80;;;;;;;;;;5038067;28;94447;-75
2023/06/06 12:31:50;;;;;;;13.63;5.32;;;;;;;;;;5035983;27;96788;-75
2023/06/06 12:34:38;;;;;;;14.63;4.53;;;;;;;;;;5037863;27;92720;-75
2023/06/06 12:37:05;;;;;;;17.45;4.38;;;;;;;;;;5037808;28;94349;-76
2023/06/06 12:39:31;;;;;;;10.43;4.10;;;;;;;;;;5037376;27;94713;-75
2023/06/06 12:41:57;;;;;;;12.77;5.22;;;;;;;;;;5021342;27;92475;-75
2023/06/06 12:44:24;;;;;;;12.57;5.03;;;;;;;;;;5017545;28;95207;-76
2023/06/06 12:46:52;;;;;;;12.60;5.10;;;;;;;;;;5028090;28;94641;-76
2023/06/06 12:49:18;;;;;;;14.90;4.78;;;;;;;;;;5020142;28;94795;-76
2023/06/06 12:51:46;;;;;;;10.65;4.47;;;;;;;;;;5037549;27;95307;-75
2023/06/06 12:54:13;;;;;;;6.97;4.28;;;;;;;;;;5037346;27;92468;-75
2023/06/06 12:56:39;;;;;;;10.13;4.50;;;;;;;;;;5036101;28;94769;-75
2023/06/06 12:59:06;;;;;;;15.45;4.95;;;;;;;;;;5019401;28;94978;-75
2023/06/06 13:01:34;;;;;;;14.30;4.75;;;;;;;;;;5037521;27;92548;-76
2023/06/06 13:04:00;;;;;;;7.57;4.03;;;;;;;;;;5037333;28;94557;-76
2023/06/06 13:06:27;;;;;;;11.40;4.75;;;;;;;;;;5037225;28;94141;-75
2023/06/06 13:08:53;;;;;;;11.15;4.60;;;;;;;;;;5039867;28;92434;-75
2023/06/06 13:11:22;;;;;;;11.20;4.13;;;;;;;;;;5037179;28;94623;-76
2023/06/06 13:13:48;;;;;;;11.45;4.15;;;;;;;;;;5037889;28;92424;-75
2023/06/06 13:16:15;;;;;;;8.95;3.53;;;;;;;;;;5035092;28;93919;-76
2023/06/06 13:18:41;;;;;;;11.13;3.92;;;;;;;;;;5016854;28;94565;-76
2023/06/06 13:21:08;;;;;;;9.27;3.60;;;;;;;;;;5015476;28;94813;-76
2023/06/06 13:23:35;;;;;;;6.40;3.63;;;;;;;;;;5016981;28;97518;-76
2023/06/06 13:26:01;;;;;;;8.95;3.75;;;;;;;;;;5016480;28;94372;-76
2023/06/06 13:28:28;;;;;;;9.77;4.10;;;;;;;;;;5019908;28;92390;-75
2023/06/06 13:30:54;;;;;;;13.00;4.15;;;;;;;;;;5016256;28;94504;-76
2023/06/06 13:33:21;;;;;;;18.45;4.57;;;;;;;;;;5017063;28;92432;-76
2023/06/06 13:35:48;;;;;;;14.20;3.72;;;;;;;;;;5016565;28;94290;-76
2023/06/06 13:38:17;;;;;;;9.02;3.88;;;;;;;;;;5016886;28;94545;-76
2023/06/06 13:40:46;;;;;;;13.00;3.88;;;;;;;;;;5016841;28;92433;-76
2023/06/06 13:43:12;;;;;;;11.88;3.30;;;;;;;;;;5015767;28;94014;-76
2023/06/06 13:45:42;;;;;;;;;;;;;;;;;;4997657;28;96861;-74
2023/06/06 13:48:09;;;;;;;11.15;4.15;;;;;;;;;;5030944;27;118828;-75
2023/06/06 13:50:36;;;;;;;14.57;4.10;;;;;;;;;;5018352;28;94423;-76
2023/06/06 13:53:03;;;;;;;13.82;3.75;;;;;;;;;;5016238;28;92443;-76
2023/06/06 13:55:31;;;;;;;9.35;3.85;;;;;;;;;;5016452;28;94121;-76
2023/06/06 13:57:58;;;;;;;8.27;3.60;;;;;;;;;;5016046;28;94426;-76
2023/06/06 14:00:24;;;;;;;10.27;3.90;;;;;;;;;;5016487;28;92444;-76
2023/06/06 14:02:51;;;;;;;12.85;3.72;;;;;;;;;;5016724;28;94255;-76
2023/06/06 14:05:18;;;;;;;22.85;4.97;;;;;;;;;;5015771;28;95319;-76
2023/06/06 14:07:48;;;;;;;;;;;;;;;;;;5015649;28;92452;-74
2023/06/06 14:10:14;;;;;;;15.98;4.10;;;;;;;;;;5014299;28;124182;-75
2023/06/06 14:12:41;;;;;;;16.45;4.68;;;;;;;;;;5018728;28;94502;-77
2023/06/06 14:15:11;;;;;;;;;;;;;;;;;;5016984;28;92373;-74
2023/06/06 14:17:38;;;;;;;7.13;4.13;;;;;;;;;;5029201;28;124540;-78
2023/06/06 14:20:11;;;;;;;11.43;4.75;;;;;;;;;;5036194;28;92491;-75
2023/06/06 14:22:40;;;;;;;10.32;4.63;;;;;;;;;;5036125;28;94417;-75
2023/06/06 14:25:06;;;;;;;11.00;4.88;;;;;;;;;;5035383;27;94771;-75
2023/06/06 14:27:37;;;;;;;13.10;5.00;;;;;;;;;;5036775;28;91692;-75
2023/06/06 14:30:05;;;;;;;14.48;4.80;;;;;;;;;;5018816;28;93350;-75
2023/06/06 14:32:32;;;;;;;17.23;4.63;;;;;;;;;;5035770;27;94277;-78
2023/06/06 14:35:01;;;;;;;12.68;5.53;;;;;;;;;;5037711;27;94816;-77
2023/06/06 14:37:28;;;;;;;12.48;5.15;;;;;;;;;;5035597;27;94595;-77